Time;durP1;ratioP1;P1;durP2;ratioP2;P2;SDS_P1;SDS_P2;PMS_P1;PMS_P2;Temp;Humidity;BMP_temperature;BMP_pressure;BME280_temperature;BME280_humidity;BME280_pressure;Samples;Min_cycle;Max_cycle;Signal;HPM_P1;HPM_P2
2023/03/11 00:00:25;;;;;;;1.17;0.32;;;;;;;7.99;100.00;96610.84;4469620;32;20119;-64
2023/03/11 00:02:54;;;;;;;0.35;0.20;;;;;;;7.96;100.00;96600.75;4469643;32;20242;-64
2023/03/11 00:05:24;;;;;;;0.55;0.40;;;;;;;8.06;100.00;96602.31;4469353;32;20097;-64
2023/03/11 00:07:51;;;;;;;0.95;0.25;;;;;;;8.00;100.00;96599.41;4469764;32;20101;-64
2023/03/11 00:10:22;;;;;;;0.20;0.20;;;;;;;7.91;100.00;96603.06;4471366;32;20122;-64
2023/03/11 00:12:50;;;;;;;2.05;0.20;;;;;;;7.94;100.00;96607.91;4485326;31;20088;-64
2023/03/11 00:15:17;;;;;;;0.30;0.28;;;;;;;7.96;100.00;96608.56;4469480;32;20111;-64
2023/03/11 00:17:46;;;;;;;0.30;0.30;;;;;;;7.97;100.00;96604.97;4469540;32;20498;-64
2023/03/11 00:20:23;;;;;;;0.70;0.20;;;;;;;8.04;100.00;96605.09;4469521;32;20092;-64
2023/03/11 00:22:51;;;;;;;2.65;0.50;;;;;;;8.04;100.00;96601.66;4469699;32;20104;-64
2023/03/11 00:25:19;;;;;;;0.28;0.13;;;;;;;8.00;100.00;96596.00;4469620;32;20096;-64
2023/03/11 00:27:46;;;;;;;0.13;0.10;;;;;;;8.14;100.00;96591.81;4469534;32;20150;-64
2023/03/11 00:30:15;;;;;;;0.70;0.70;;;;;;;8.14;100.00;96594.41;4469471;32;20604;-64
2023/03/11 00:32:42;;;;;;;1.33;0.70;;;;;;;8.15;100.00;96596.84;4469508;32;20149;-64
2023/03/11 00:35:13;;;;;;;0.22;0.22;;;;;;;8.16;100.00;96610.69;4469360;32;20093;-64
2023/03/11 00:37:41;;;;;;;2.75;0.50;;;;;;;8.05;100.00;96587.66;4469473;32;20449;-64
2023/03/11 00:40:13;;;;;;;0.40;0.30;;;;;;;8.03;100.00;96600.06;4469190;32;20084;-64
2023/03/11 00:42:40;;;;;;;0.82;0.30;;;;;;;8.04;100.00;96599.88;4469596;32;20084;-64
2023/03/11 00:45:10;;;;;;;0.20;0.20;;;;;;;7.99;100.00;96608.22;4468437;32;20493;-64
2023/03/11 00:47:37;;;;;;;2.80;0.70;;;;;;;7.93;100.00;96611.53;4469545;32;20097;-64
2023/03/11 00:50:07;;;;;;;0.55;0.40;;;;;;;8.10;100.00;96616.59;4469311;32;20101;-64
2023/03/11 00:52:34;;;;;;;0.90;0.22;;;;;;;8.13;100.00;96617.09;4469517;32;20097;-64
2023/03/11 00:55:01;;;;;;;1.92;0.57;;;;;;;8.03;100.00;96610.47;4469589;32;20122;-64
2023/03/11 00:57:29;;;;;;;0.82;0.60;;;;;;;8.00;100.00;96622.88;4469581;32;20166;-64
2023/03/11 00:59:58;;;;;;;1.52;0.62;;;;;;;8.03;100.00;96618.31;4469085;32;20110;-64
2023/03/11 01:02:25;;;;;;;1.33;0.50;;;;;;;7.97;100.00;96628.44;4469496;32;20120;-64
2023/03/11 01:04:54;;;;;;;1.10;0.50;;;;;;;7.90;100.00;96611.03;4469202;32;20362;-64
2023/03/11 01:07:22;;;;;;;0.30;0.30;;;;;;;7.87;100.00;96653.91;4469181;32;20160;-64
2023/03/11 01:09:49;;;;;;;2.37;0.40;;;;;;;7.89;100.00;96617.22;4468989;32;20153;-64
2023/03/11 01:12:16;;;;;;;0.30;0.30;;;;;;;7.97;100.00;96628.44;4483715;32;20104;-64
2023/03/11 01:14:44;;;;;;;0.90;0.35;;;;;;;7.90;100.00;96627.53;4484625;31;20131;-64
2023/03/11 01:17:11;;;;;;;1.40;0.50;;;;;;;7.81;100.00;96620.72;4484605;31;20104;-64
2023/03/11 01:19:38;;;;;;;0.88;0.50;;;;;;;7.80;100.00;96599.06;4484612;31;20382;-64
2023/03/11 01:22:05;;;;;;;0.60;0.30;;;;;;;7.82;100.00;96607.50;4484655;31;20155;-64
2023/03/11 01:24:33;;;;;;;0.85;0.40;;;;;;;7.79;100.00;96599.22;4484639;31;20104;-64
2023/03/11 01:27:03;;;;;;;0.93;0.50;;;;;;;7.68;100.00;96602.25;4484498;31;20131;-64
2023/03/11 01:29:30;;;;;;;0.80;0.50;;;;;;;7.67;100.00;96605.81;4484847;31;20156;-64
2023/03/11 01:31:58;;;;;;;1.20;0.43;;;;;;;7.62;100.00;96611.56;4484510;31;20186;-64
2023/03/11 01:34:25;;;;;;;0.70;0.40;;;;;;;7.64;100.00;96606.97;4484774;32;20157;-64
2023/03/11 01:36:52;;;;;;;2.87;0.50;;;;;;;7.62;100.00;96614.97;4484313;31;20089;-64
2023/03/11 01:39:19;;;;;;;3.47;0.85;;;;;;;7.55;100.00;96613.22;4484329;31;20092;-64
2023/03/11 01:41:47;;;;;;;1.37;0.60;;;;;;;7.56;100.00;96620.84;4484279;32;20143;-64
2023/03/11 01:44:14;;;;;;;1.17;0.57;;;;;;;7.61;100.00;96602.91;4484564;31;20092;-64
2023/03/11 01:46:53;;;;;;;1.87;0.68;;;;;;;7.57;100.00;96596.44;4484135;31;20169;-64
2023/03/11 01:49:22;;;;;;;0.73;0.40;;;;;;;7.49;100.00;96603.47;4484582;31;20111;-64
2023/03/11 01:51:55;;;;;;;1.85;0.30;;;;;;;7.44;100.00;96601.37;4484322;32;20142;-64
2023/03/11 01:54:37;;;;;;;0.83;0.40;;;;;;;7.42;100.00;96614.59;4484496;31;20122;-64
2023/03/11 01:57:07;;;;;;;3.22;0.62;;;;;;;7.46;100.00;96608.06;4486471;31;20608;-64
2023/03/11 01:59:47;;;;;;;3.92;0.70;;;;;;;7.50;100.00;96605.91;4486512;32;20181;-64
2023/03/11 02:02:53;;;;;;;1.02;0.73;;;;;;;7.46;100.00;96604.63;4484857;32;20509;-64
2023/03/11 02:05:22;;;;;;;1.37;0.57;;;;;;;7.50;100.00;96616.34;4436511;32;20153;-64
2023/03/11 02:07:50;;;;;;;0.45;0.32;;;;;;;7.52;100.00;96611.75;4437257;32;20131;-64
2023/03/11 02:10:18;;;;;;;1.45;0.68;;;;;;;7.53;100.00;96625.63;4422742;32;20211;-64
2023/03/11 02:12:47;;;;;;;1.08;0.32;;;;;;;7.51;100.00;96617.97;4421935;32;20117;-64
2023/03/11 02:15:21;;;;;;;2.37;0.65;;;;;;;7.56;100.00;96605.22;4406381;32;20090;-64
2023/03/11 02:17:49;;;;;;;0.65;0.40;;;;;;;7.54;100.00;96606.38;4394132;32;20494;-64
2023/03/11 02:20:29;;;;;;;1.92;0.60;;;;;;;7.58;100.00;96608.47;4406268;32;20320;-64
2023/03/11 02:22:56;;;;;;;1.33;0.43;;;;;;;7.59;100.00;96599.66;4406309;32;20085;-64
2023/03/11 02:26:00;;;;;;;0.73;0.50;;;;;;;7.60;100.00;96584.84;4406502;32;20204;-64
2023/03/11 02:28:30;;;;;;;0.30;0.30;;;;;;;7.69;100.00;96590.81;4406350;32;20188;-64
2023/03/11 02:30:58;;;;;;;0.88;0.50;;;;;;;7.74;100.00;96585.91;4393763;32;20679;-64
2023/03/11 02:33:28;;;;;;;2.72;0.70;;;;;;;7.74;100.00;96588.53;4406379;32;20323;-64
2023/03/11 02:35:56;;;;;;;1.70;0.57;;;;;;;7.80;100.00;96604.28;4406092;32;20101;-64
2023/03/11 02:38:24;;;;;;;1.15;0.50;;;;;;;7.83;100.00;96595.31;4406613;32;20148;-64
2023/03/11 02:40:54;;;;;;;0.30;0.30;;;;;;;7.88;97.25;96600.78;4436911;32;20148;-64
2023/03/11 02:43:32;;;;;;;1.08;0.40;;;;;;;7.91;96.59;96608.25;4470599;32;20081;-64
2023/03/11 02:46:00;;;;;;;1.10;0.50;;;;;;;7.92;96.21;96614.31;4468843;32;20111;-64
2023/03/11 02:48:28;;;;;;;1.00;0.45;;;;;;;7.88;96.90;96600.78;4470552;32;20085;-64
2023/03/11 02:50:56;;;;;;;0.65;0.35;;;;;;;7.87;95.72;96624.44;4469265;32;20179;-64
2023/03/11 02:53:25;;;;;;;1.27;0.60;;;;;;;7.92;93.32;96602.06;4470215;32;20100;-64
2023/03/11 02:55:53;;;;;;;0.82;0.50;;;;;;;7.95;94.28;96616.56;4470550;32;20152;-64
2023/03/11 02:58:26;;;;;;;2.08;0.52;;;;;;;7.87;95.24;96620.00;4470490;32;20135;-64
2023/03/11 03:00:53;;;;;;;0.30;0.30;;;;;;;7.94;92.01;96628.78;4470126;32;20460;-64
2023/03/11 03:03:20;;;;;;;0.28;0.20;;;;;;;7.94;93.25;96626.16;4470036;32;20552;-64
2023/03/11 03:05:47;;;;;;;2.90;0.40;;;;;;;7.95;90.91;96629.59;4470154;32;20476;-64
2023/03/11 03:08:15;;;;;;;0.37;0.20;;;;;;;7.88;92.99;96632.06;4469549;32;20093;-65
2023/03/11 03:10:42;;;;;;;1.90;0.62;;;;;;;7.86;90.17;96635.81;4474321;32;20130;-64
2023/03/11 03:13:09;;;;;;;4.12;0.50;;;;;;;7.89;90.54;96641.53;4485539;31;20507;-64
2023/03/11 03:15:37;;;;;;;1.92;0.30;;;;;;;7.86;89.31;96673.16;4485706;31;20529;-64
2023/03/11 03:18:05;;;;;;;1.55;0.40;;;;;;;7.85;88.19;96671.53;4485920;31;20123;-64
2023/03/11 03:20:32;;;;;;;0.40;0.20;;;;;;;7.85;88.29;96660.28;4485931;31;20161;-64
2023/03/11 03:23:00;;;;;;;1.67;0.70;;;;;;;7.86;87.10;96673.16;4485785;31;20168;-64
2023/03/11 03:25:27;;;;;;;2.00;0.40;;;;;;;7.81;88.40;96665.03;4485922;31;20374;-64
2023/03/11 03:27:55;;;;;;;1.58;0.45;;;;;;;7.81;87.49;96665.03;4485714;31;20542;-64
2023/03/11 03:30:23;;;;;;;2.42;0.50;;;;;;;7.74;87.77;96671.94;4485829;31;20572;-64
2023/03/11 03:32:52;;;;;;;2.45;0.50;;;;;;;7.70;84.28;96668.81;4485453;31;20111;-64
2023/03/11 03:35:19;;;;;;;0.25;0.25;;;;;;;7.63;79.38;96653.06;4485840;31;20104;-64
2023/03/11 03:37:49;;;;;;;0.37;0.30;;;;;;;7.64;74.47;96649.50;4485803;31;20146;-64
2023/03/11 03:40:17;;;;;;;1.08;0.40;;;;;;;7.57;73.04;96656.38;4485857;31;20151;-64
2023/03/11 03:42:44;;;;;;;0.62;0.32;;;;;;;7.51;75.32;96670.06;4485444;31;20127;-64
2023/03/11 03:45:11;;;;;;;0.40;0.30;;;;;;;7.42;73.58;96655.47;4485838;31;20161;-64
2023/03/11 03:47:38;;;;;;;1.27;0.95;;;;;;;7.37;73.18;96657.75;4485301;31;20104;-64
2023/03/11 03:50:08;;;;;;;0.73;0.50;;;;;;;7.26;74.25;96667.53;4485879;31;20108;-64
2023/03/11 03:52:37;;;;;;;1.75;0.50;;;;;;;7.21;75.26;96650.81;4485711;31;20131;-64
2023/03/11 03:55:05;;;;;;;1.17;0.50;;;;;;;7.11;77.74;96651.00;4485512;31;20080;-64
2023/03/11 03:57:32;;;;;;;0.40;0.40;;;;;;;7.02;78.13;96662.41;4485432;31;20433;-64
2023/03/11 03:59:59;;;;;;;0.82;0.40;;;;;;;7.06;76.91;96651.50;4485474;31;20119;-64
2023/03/11 04:02:26;;;;;;;2.40;0.45;;;;;;;6.98;78.94;96685.37;4485632;32;20127;-64
2023/03/11 04:04:54;;;;;;;2.00;0.50;;;;;;;6.90;80.08;96665.38;4485485;32;20072;-64
2023/03/11 04:07:21;;;;;;;0.68;0.30;;;;;;;6.87;80.44;96670.09;4485166;32;20284;-64
2023/03/11 04:09:49;;;;;;;0.52;0.40;;;;;;;6.82;78.00;96678.41;4485603;31;20100;-64
2023/03/11 04:12:16;;;;;;;1.45;0.50;;;;;;;6.84;75.40;96691.25;4485320;31;20105;-64
2023/03/11 04:14:44;;;;;;;0.98;0.60;;;;;;;6.87;75.11;96673.53;4485459;31;20358;-64
2023/03/11 04:17:12;;;;;;;1.40;0.47;;;;;;;6.83;74.81;96687.00;4485112;31;20108;-64
2023/03/11 04:19:39;;;;;;;0.80;0.40;;;;;;;6.71;70.21;96650.13;4485274;32;20247;-64
2023/03/11 04:22:10;;;;;;;2.35;0.60;;;;;;;6.65;67.65;96688.03;4485512;31;20410;-64
2023/03/11 04:24:37;;;;;;;1.98;0.65;;;;;;;6.60;66.34;96684.28;4485307;31;20158;-64
2023/03/11 04:27:05;;;;;;;1.33;0.50;;;;;;;6.54;64.78;96688.34;4485284;31;20168;-64
2023/03/11 04:29:33;;;;;;;1.85;0.70;;;;;;;6.47;64.85;96679.56;4485434;31;20089;-64
2023/03/11 04:32:01;;;;;;;1.15;0.47;;;;;;;6.37;64.93;96687.53;4485528;31;20092;-64
2023/03/11 04:34:29;;;;;;;3.03;0.50;;;;;;;6.30;63.31;96697.78;4485447;31;20140;-64
2023/03/11 04:36:56;;;;;;;2.85;0.40;;;;;;;6.32;62.65;96669.81;4485116;32;20162;-64
2023/03/11 04:39:24;;;;;;;2.45;0.40;;;;;;;6.26;64.34;96686.06;4485279;31;20084;-64
2023/03/11 04:41:51;;;;;;;6.43;0.50;;;;;;;6.19;63.45;96672.06;4485070;31;20112;-65
2023/03/11 04:44:18;;;;;;;8.52;0.82;;;;;;;6.13;63.09;96670.13;4485260;31;20153;-64
2023/03/11 04:46:47;;;;;;;7.28;0.55;;;;;;;6.07;61.99;96649.97;4485034;31;20131;-64
2023/03/11 04:49:15;;;;;;;5.18;0.82;;;;;;;6.01;62.58;96652.25;4484823;32;20107;-64
2023/03/11 04:51:42;;;;;;;5.93;0.85;;;;;;;5.95;63.01;96662.41;4485270;32;20092;-64
2023/03/11 04:54:10;;;;;;;2.78;0.43;;;;;;;5.89;60.74;96679.50;4485241;31;20135;-64
2023/03/11 04:56:37;;;;;;;3.72;1.02;;;;;;;5.83;55.46;96628.97;4485029;31;20188;-64
2023/03/11 04:59:04;;;;;;;9.07;0.80;;;;;;;5.74;57.80;96694.88;4485201;31;20100;-64
2023/03/11 05:01:32;;;;;;;1.52;0.75;;;;;;;5.61;57.52;96658.12;4485148;31;20100;-64
2023/03/11 05:04:00;;;;;;;7.72;0.50;;;;;;;5.42;58.70;96673.00;4485114;31;20097;-64
2023/03/11 05:06:27;;;;;;;12.23;0.85;;;;;;;5.35;59.82;96655.63;4484952;31;20100;-64
2023/03/11 05:08:54;;;;;;;4.60;0.50;;;;;;;5.23;59.83;96665.47;4485090;31;20156;-64
2023/03/11 05:11:22;;;;;;;0.77;0.50;;;;;;;5.14;62.16;96667.19;4484955;31;20403;-64
2023/03/11 05:13:49;;;;;;;12.23;1.25;;;;;;;5.07;62.16;96653.22;4484784;31;20797;-64
2023/03/11 05:16:16;;;;;;;8.80;0.80;;;;;;;5.03;63.91;96667.47;4484953;31;20112;-64
2023/03/11 05:18:44;;;;;;;3.80;0.70;;;;;;;4.93;65.63;96670.16;4485000;31;20457;-64
2023/03/11 05:21:12;;;;;;;11.27;1.37;;;;;;;4.82;65.31;96681.62;4484966;31;20092;-64
2023/03/11 05:23:39;;;;;;;10.77;1.00;;;;;;;4.81;65.02;96677.37;4484689;31;20119;-64
2023/03/11 05:26:06;;;;;;;5.93;0.50;;;;;;;4.79;65.74;96697.50;4484861;31;20439;-64
2023/03/11 05:28:33;;;;;;;8.98;0.80;;;;;;;4.73;66.30;96708.47;4484828;31;20115;-64
2023/03/11 05:31:00;;;;;;;2.03;0.57;;;;;;;4.64;65.56;96717.97;4484094;32;20100;-64
2023/03/11 05:33:34;;;;;;;3.33;0.75;;;;;;;4.62;64.98;96697.38;4484793;31;20494;-64
2023/03/11 05:36:06;;;;;;;8.10;0.88;;;;;;;4.61;65.45;96713.09;4484403;31;20100;-64
2023/03/11 05:38:35;;;;;;;5.28;0.93;;;;;;;4.55;65.39;96724.88;4484805;31;20445;-64
2023/03/11 05:41:02;;;;;;;5.47;0.80;;;;;;;4.52;65.19;96732.13;4484648;31;20108;-64
2023/03/11 05:43:29;;;;;;;4.28;0.60;;;;;;;4.44;64.34;96762.22;4484727;32;20080;-64
2023/03/11 05:45:58;;;;;;;2.83;0.30;;;;;;;4.46;64.79;96753.47;4484316;31;20596;-64
2023/03/11 05:48:25;;;;;;;0.90;0.60;;;;;;;4.44;65.04;96745.84;4484696;31;20536;-64
2023/03/11 05:50:52;;;;;;;1.52;0.57;;;;;;;4.38;64.88;96736.88;4484219;31;20127;-64
2023/03/11 05:53:20;;;;;;;0.57;0.43;;;;;;;4.31;64.95;96732.44;4484542;31;20096;-64
2023/03/11 05:55:57;;;;;;;14.55;1.05;;;;;;;4.33;65.66;96717.53;4484564;31;20109;-64
2023/03/11 05:58:27;;;;;;;4.07;0.70;;;;;;;4.34;66.50;96729.56;4484220;31;20146;-64
2023/03/11 06:00:54;;;;;;;1.25;0.57;;;;;;;4.33;67.65;96714.94;4484125;32;20084;-64
2023/03/11 06:03:22;;;;;;;3.87;0.40;;;;;;;4.22;67.64;96723.78;4484209;31;20414;-64
2023/03/11 06:05:50;;;;;;;2.72;0.60;;;;;;;4.23;67.90;96733.19;4484161;31;20123;-64
2023/03/11 06:08:18;;;;;;;1.95;0.47;;;;;;;4.19;66.96;96731.84;4484352;31;20100;-64
2023/03/11 06:10:45;;;;;;;0.85;0.60;;;;;;;4.15;66.24;96725.31;4483767;32;20127;-64
2023/03/11 06:13:15;;;;;;;1.33;0.55;;;;;;;4.15;66.83;96746.87;4484162;32;20081;-64
2023/03/11 06:15:44;;;;;;;0.60;0.50;;;;;;;4.19;66.50;96750.78;4483576;31;20150;-64
2023/03/11 06:18:12;;;;;;;1.67;0.80;;;;;;;4.19;65.92;96743.00;4484306;31;20123;-64
2023/03/11 06:20:40;;;;;;;2.72;0.80;;;;;;;4.18;66.18;96754.34;4483961;31;20101;-64
2023/03/11 06:23:07;;;;;;;1.40;0.43;;;;;;;4.23;66.12;96778.03;4484160;31;20711;-64
2023/03/11 06:25:34;;;;;;;0.52;0.45;;;;;;;4.19;65.26;96800.03;4483951;31;20563;-64
2023/03/11 06:28:02;;;;;;;0.55;0.40;;;;;;;4.12;65.37;96798.16;4484234;32;20478;-64
2023/03/11 06:30:29;;;;;;;0.65;0.55;;;;;;;4.11;63.97;96807.72;4483974;31;20084;-64
2023/03/11 06:32:57;;;;;;;0.35;0.30;;;;;;;4.00;63.91;96819.09;4484149;32;20110;-64
2023/03/11 06:35:24;;;;;;;1.85;0.55;;;;;;;4.02;63.27;96811.19;4483748;31;20105;-64
2023/03/11 06:37:51;;;;;;;0.62;0.45;;;;;;;4.02;63.60;96812.00;4483926;31;20096;-64
2023/03/11 06:40:19;;;;;;;1.20;0.43;;;;;;;4.04;62.70;96823.03;4483781;31;20111;-64
2023/03/11 06:42:46;;;;;;;0.68;0.30;;;;;;;4.03;63.16;96842.12;4485092;31;20088;-64
2023/03/11 06:45:14;;;;;;;0.47;0.30;;;;;;;4.06;63.37;96849.62;4486182;31;20123;-64
2023/03/11 06:47:41;;;;;;;0.65;0.50;;;;;;;4.04;62.92;96845.53;4486002;31;20151;-64
2023/03/11 06:50:09;;;;;;;0.52;0.40;;;;;;;4.01;61.79;96844.06;4486183;31;20485;-64
2023/03/11 06:52:36;;;;;;;6.75;0.60;;;;;;;4.08;61.86;96872.78;4486207;32;20500;-64
2023/03/11 06:55:05;;;;;;;3.40;0.47;;;;;;;4.00;61.17;96852.78;4486109;31;20100;-64
2023/03/11 06:57:33;;;;;;;1.02;0.30;;;;;;;4.03;61.21;96875.00;4486061;31;20125;-64
2023/03/11 07:00:00;;;;;;;0.47;0.37;;;;;;;4.02;60.14;96876.75;4486101;31;20118;-64
2023/03/11 07:02:28;;;;;;;0.85;0.30;;;;;;;4.22;60.58;96866.31;4486026;31;20100;-64
2023/03/11 07:04:56;;;;;;;0.65;0.40;;;;;;;4.61;59.80;96866.91;4485600;31;20737;-64
2023/03/11 07:07:23;;;;;;;1.17;0.40;;;;;;;4.67;59.01;96849.94;4485743;31;20123;-64
2023/03/11 07:09:54;;;;;;;0.75;0.50;;;;;;;4.55;60.42;96866.69;4485756;31;20411;-64
2023/03/11 07:12:21;;;;;;;1.27;0.60;;;;;;;4.30;58.38;96856.06;4485625;31;20142;-64
2023/03/11 07:14:55;;;;;;;0.82;0.50;;;;;;;4.34;58.76;96885.88;4485619;31;20127;-64
2023/03/11 07:17:24;;;;;;;3.30;0.40;;;;;;;4.30;59.14;96875.94;4485549;31;20088;-64
2023/03/11 07:19:51;;;;;;;0.62;0.32;;;;;;;4.31;59.25;96880.19;4485914;31;20549;-64
2023/03/11 07:22:19;;;;;;;8.32;0.40;;;;;;;4.20;58.69;96879.41;4485711;31;20441;-64
2023/03/11 07:24:47;;;;;;;3.03;0.50;;;;;;;4.23;58.99;96892.09;4485643;31;20147;-64
2023/03/11 07:27:15;;;;;;;0.32;0.30;;;;;;;4.15;58.03;96893.75;4485559;31;20205;-64
2023/03/11 07:29:42;;;;;;;0.20;0.20;;;;;;;4.06;59.09;96869.53;4485478;31;20621;-64
2023/03/11 07:32:09;;;;;;;1.83;1.17;;;;;;;4.03;58.78;96878.41;4485661;32;20521;-64
2023/03/11 07:34:36;;;;;;;1.08;0.65;;;;;;;4.17;58.97;96863.34;4485615;31;20131;-64
2023/03/11 07:37:03;;;;;;;2.75;0.47;;;;;;;4.43;58.86;96864.28;4485437;31;20164;-64
2023/03/11 07:39:31;;;;;;;0.35;0.30;;;;;;;4.69;58.33;96848.00;4485462;31;20084;-64
2023/03/11 07:41:58;;;;;;;0.40;0.30;;;;;;;4.69;56.54;96848.00;4485508;31;20084;-64
2023/03/11 07:44:28;;;;;;;0.30;0.30;;;;;;;4.43;57.25;96833.16;4486073;31;20100;-64
2023/03/11 07:46:55;;;;;;;1.30;0.70;;;;;;;4.29;58.63;96818.13;4485249;32;20488;-64
2023/03/11 07:49:22;;;;;;;1.37;0.60;;;;;;;4.04;58.19;96846.37;4485605;31;20462;-64
2023/03/11 07:51:49;;;;;;;0.93;0.30;;;;;;;4.04;59.26;96846.37;4485418;31;20136;-64
2023/03/11 07:54:17;;;;;;;0.70;0.30;;;;;;;3.92;57.66;96886.34;4485075;31;20202;-64
2023/03/11 07:56:44;;;;;;;0.82;0.40;;;;;;;3.84;57.94;96868.09;4485340;31;20088;-64
2023/03/11 07:59:11;;;;;;;1.15;0.57;;;;;;;3.82;58.03;96865.66;4485459;31;20092;-64
2023/03/11 08:01:40;;;;;;;0.82;0.43;;;;;;;3.82;58.87;96850.12;4485241;31;20110;-64
2023/03/11 08:04:09;;;;;;;4.47;0.60;;;;;;;3.82;58.96;96819.03;4485232;31;20157;-64
2023/03/11 08:06:40;;;;;;;1.67;0.47;;;;;;;3.73;58.67;96810.34;4485258;31;20141;-64
2023/03/11 08:09:08;;;;;;;0.68;0.50;;;;;;;4.01;59.21;96832.84;4485415;31;20155;-64
2023/03/11 08:11:36;;;;;;;1.58;0.50;;;;;;;4.24;57.40;96846.25;4485116;31;20084;-64
2023/03/11 08:14:04;;;;;;;0.55;0.30;;;;;;;4.27;58.23;96848.56;4485295;31;20505;-64
2023/03/11 08:16:31;;;;;;;0.55;0.32;;;;;;;4.13;57.55;96856.81;4485060;31;20101;-64
2023/03/11 08:18:58;;;;;;;1.73;0.70;;;;;;;4.07;58.10;96892.72;4484205;32;20558;-64
2023/03/11 08:21:28;;;;;;;0.75;0.40;;;;;;;4.08;58.20;96907.28;4485066;31;20092;-64
2023/03/11 08:23:57;;;;;;;0.40;0.30;;;;;;;4.46;57.53;96877.94;4485396;31;20096;-64
2023/03/11 08:26:25;;;;;;;0.77;0.40;;;;;;;4.71;56.39;96869.44;4485168;31;20119;-64
2023/03/11 08:28:53;;;;;;;0.57;0.47;;;;;;;4.98;57.34;96868.56;4485186;31;20118;-64
2023/03/11 08:31:26;;;;;;;0.75;0.60;;;;;;;4.98;55.70;96893.66;4485145;31;20080;-64
2023/03/11 08:33:56;;;;;;;0.55;0.50;;;;;;;5.06;56.84;96847.03;4485378;31;20089;-64
2023/03/11 08:36:24;;;;;;;0.62;0.57;;;;;;;4.90;55.32;96828.75;4485088;31;20115;-64
2023/03/11 08:38:51;;;;;;;0.82;0.70;;;;;;;5.06;56.38;96828.88;4485102;32;20834;-64
2023/03/11 08:41:19;;;;;;;0.55;0.45;;;;;;;5.04;55.06;96848.16;4485029;32;20084;-64
2023/03/11 08:43:47;;;;;;;2.10;0.50;;;;;;;5.13;56.27;96801.38;4485153;31;20462;-64
2023/03/11 08:46:31;;;;;;;1.55;0.62;;;;;;;5.41;55.17;96868.72;4484971;31;20587;-64
2023/03/11 08:48:59;;;;;;;1.40;0.50;;;;;;;5.26;54.14;96846.88;4485212;32;20114;-64
2023/03/11 08:51:29;;;;;;;0.30;0.30;;;;;;;5.35;53.67;96858.94;4485178;31;20430;-64
2023/03/11 08:53:56;;;;;;;2.20;0.50;;;;;;;5.40;53.71;96822.94;4485045;31;20126;-64
2023/03/11 08:56:23;;;;;;;1.40;0.68;;;;;;;5.64;54.80;96868.22;4484961;32;20096;-65
2023/03/11 08:58:51;;;;;;;6.18;0.85;;;;;;;5.66;52.29;96880.09;4484968;31;20093;-64
2023/03/11 09:01:22;;;;;;;1.37;0.65;;;;;;;5.59;52.85;96891.25;4484938;32;20110;-64
2023/03/11 09:03:50;;;;;;;0.40;0.40;;;;;;;5.56;52.27;96886.38;4484824;32;20081;-64
2023/03/11 09:06:18;;;;;;;3.22;0.57;;;;;;;5.55;51.68;96905.50;4484050;31;20623;-64
2023/03/11 09:08:45;;;;;;;1.75;0.47;;;;;;;5.72;52.94;96883.84;4484965;31;20183;-65
2023/03/11 09:11:14;;;;;;;1.10;0.37;;;;;;;5.83;53.07;96904.41;4484800;32;20692;-64
2023/03/11 09:13:42;;;;;;;1.05;0.65;;;;;;;5.85;52.26;96912.84;4484733;31;20471;-64
2023/03/11 09:16:15;;;;;;;0.75;0.52;;;;;;;5.70;52.60;96929.97;4484740;32;20438;-64
2023/03/11 09:18:42;;;;;;;0.55;0.40;;;;;;;5.77;53.09;96940.56;4484591;32;20216;-64
2023/03/11 09:21:10;;;;;;;1.33;0.55;;;;;;;5.69;53.21;96949.09;4485051;31;20131;-64
2023/03/11 09:23:37;;;;;;;1.00;0.50;;;;;;;5.55;54.19;96973.03;4484642;31;20096;-64
2023/03/11 09:26:04;;;;;;;4.90;1.17;;;;;;;5.25;53.38;96972.44;4484822;31;20092;-64
2023/03/11 09:28:32;;;;;;;7.53;0.93;;;;;;;5.10;53.96;96995.50;4484458;31;20113;-64
2023/03/11 09:30:59;;;;;;;1.33;0.57;;;;;;;4.91;54.82;96993.84;4484632;31;20112;-64
2023/03/11 09:33:26;;;;;;;14.07;0.75;;;;;;;4.84;54.79;96985.00;4484295;31;20147;-64
2023/03/11 09:35:53;;;;;;;3.33;0.52;;;;;;;4.66;54.38;96993.53;4484573;31;20091;-64
2023/03/11 09:38:20;;;;;;;2.15;0.55;;;;;;;4.64;55.57;96985.09;4484423;32;20471;-64
2023/03/11 09:41:02;;;;;;;1.02;0.60;;;;;;;4.65;55.18;96976.38;4484480;31;20097;-64
2023/03/11 09:43:45;;;;;;;2.35;0.50;;;;;;;4.55;54.94;96973.00;4483035;32;20137;-64
2023/03/11 09:46:22;;;;;;;0.22;0.20;;;;;;;4.61;55.13;96980.19;4483158;32;20147;-64
2023/03/11 09:49:17;;;;;;;0.20;0.15;;;;;;;4.75;55.24;96997.87;4484182;32;20564;-64
2023/03/11 09:51:50;;;;;;;3.90;0.95;;;;;;;5.03;55.22;97010.03;4434993;32;20078;-64
2023/03/11 09:54:17;;;;;;;0.95;0.50;;;;;;;5.15;54.66;96999.28;4435152;32;20172;-64
2023/03/11 09:56:45;;;;;;;0.20;0.20;;;;;;;5.31;53.16;96977.03;4435147;32;20125;-64
2023/03/11 09:59:30;;;;;;;2.58;0.43;;;;;;;5.28;53.65;97013.69;4434808;32;20182;-64
2023/03/11 10:01:59;;;;;;;1.05;0.47;;;;;;;5.26;53.15;97016.44;4435025;32;20101;-64
2023/03/11 10:04:33;;;;;;;1.30;0.35;;;;;;;5.11;53.11;97044.66;4434874;32;20105;-64
2023/03/11 10:07:04;;;;;;;2.62;0.60;;;;;;;5.18;53.75;97018.13;4422502;32;20097;-64
2023/03/11 10:09:34;;;;;;;1.35;0.40;;;;;;;5.14;54.03;97013.22;4422033;32;20608;-64
2023/03/11 10:12:20;;;;;;;0.30;0.30;;;;;;;5.11;53.91;97015.31;4406757;32;20133;-64
2023/03/11 10:15:06;;;;;;;0.43;0.40;;;;;;;4.95;53.31;97018.53;4428730;32;20670;-64
2023/03/11 10:17:39;;;;;;;1.02;0.40;;;;;;;4.99;54.84;97009.50;4436617;32;20123;-64
2023/03/11 10:20:12;;;;;;;3.20;0.62;;;;;;;4.88;54.10;97025.28;4437022;32;20117;-64
2023/03/11 10:23:06;;;;;;;2.92;0.43;;;;;;;4.79;54.06;97019.16;4436771;32;20155;-64
2023/03/11 10:25:57;;;;;;;0.65;0.40;;;;;;;4.66;55.04;97066.16;4437122;32;20109;-64
2023/03/11 10:28:32;;;;;;;0.68;0.30;;;;;;;4.73;55.67;97074.22;4438926;32;20108;-64
2023/03/11 10:31:17;;;;;;;0.60;0.25;;;;;;;4.60;55.90;97085.72;4484877;32;20437;-64
2023/03/11 10:34:01;;;;;;;0.55;0.37;;;;;;;4.49;56.41;97100.62;4486167;31;20100;-64
2023/03/11 10:36:39;;;;;;;0.15;0.15;;;;;;;4.47;57.12;97099.94;4484690;32;20160;-64
2023/03/11 10:39:08;;;;;;;3.95;0.30;;;;;;;4.41;57.61;97102.13;4484646;32;20132;-64
2023/03/11 10:41:43;;;;;;;0.37;0.30;;;;;;;4.45;57.96;97094.88;4484575;32;20172;-64
2023/03/11 10:44:14;;;;;;;0.70;0.30;;;;;;;4.59;56.55;97111.81;4484629;32;20069;-64
2023/03/11 10:46:42;;;;;;;0.90;0.60;;;;;;;4.66;56.13;97101.66;4484577;32;20148;-64
2023/03/11 10:49:16;;;;;;;0.80;0.40;;;;;;;4.80;55.85;97109.81;4484462;32;20441;-64
2023/03/11 10:51:49;;;;;;;0.43;0.40;;;;;;;5.50;55.61;97091.16;4485231;32;20507;-64
2023/03/11 10:54:42;;;;;;;1.50;0.22;;;;;;;6.10;52.75;97092.41;4485911;31;20084;-64
2023/03/11 10:57:22;;;;;;;1.35;0.30;;;;;;;5.76;52.22;97098.25;4486069;31;20095;-64
2023/03/11 10:59:51;;;;;;;5.45;0.45;;;;;;;5.98;52.72;97096.19;4485844;31;20144;-64
2023/03/11 11:02:53;;;;;;;2.00;0.45;;;;;;;6.06;53.00;97111.87;4485696;31;20528;-64
2023/03/11 11:05:27;;;;;;;3.05;0.40;;;;;;;6.39;52.16;97078.31;4485566;31;20097;-64
2023/03/11 11:08:21;;;;;;;1.42;0.55;;;;;;;6.57;51.91;97060.88;4485899;31;20100;-64
2023/03/11 11:10:54;;;;;;;1.08;0.35;;;;;;;6.34;49.87;97083.13;4483585;31;20087;-64
2023/03/11 11:13:23;;;;;;;11.23;1.08;;;;;;;6.36;48.49;97052.63;4485805;31;20092;-64
2023/03/11 11:15:59;;;;;;;5.80;0.82;;;;;;;6.62;49.68;97067.41;4485779;31;20111;-64
2023/03/11 11:18:44;;;;;;;4.70;0.98;;;;;;;6.51;49.50;97116.12;4485814;31;20181;-64
2023/03/11 11:21:27;;;;;;;1.15;0.45;;;;;;;6.59;48.31;97091.94;4485709;31;20111;-64
2023/03/11 11:24:12;;;;;;;6.37;1.02;;;;;;;6.73;49.26;97093.16;4485870;31;20084;-64
2023/03/11 11:26:39;;;;;;;0.60;0.40;;;;;;;6.74;48.75;97084.38;4485655;31;20102;-64
2023/03/11 11:29:10;;;;;;;1.73;0.50;;;;;;;6.61;49.37;97100.38;4484926;32;20123;-64
2023/03/11 11:31:39;;;;;;;4.32;0.50;;;;;;;6.52;48.49;97112.53;4485691;32;20160;-64
2023/03/11 11:34:32;;;;;;;0.40;0.30;;;;;;;6.74;49.28;97094.78;4485917;31;20100;-64
2023/03/11 11:37:03;;;;;;;7.90;0.50;;;;;;;6.91;47.85;97114.72;4485693;31;20168;-64
2023/03/11 11:39:39;;;;;;;2.35;0.57;;;;;;;7.08;47.97;97096.56;4485717;31;20101;-64
2023/03/11 11:42:09;;;;;;;1.37;0.45;;;;;;;6.90;48.40;97131.31;4484380;32;20151;-64
2023/03/11 11:44:36;;;;;;;5.40;0.40;;;;;;;6.91;49.06;97132.94;4484244;32;20127;-65
2023/03/11 11:47:31;;;;;;;5.35;0.70;;;;;;;7.22;48.76;97127.25;4485389;32;20109;-64
2023/03/11 11:50:05;;;;;;;0.30;0.30;;;;;;;6.82;48.29;97133.84;4485645;31;20088;-64
2023/03/11 11:52:39;;;;;;;;;;;;;;;7.05;49.00;97143.75;4485824;32;20160;-64